Time;durP1;ratioP1;P1;durP2;ratioP2;P2;SDS_P1;SDS_P2;PMS_P1;PMS_P2;Temp;Humidity;BMP_temperature;BMP_pressure;BME280_temperature;BME280_humidity;BME280_pressure;Samples;Min_cycle;Max_cycle;Signal;HPM_P1;HPM_P2
2022/11/06 00:02:17;;;;;;;11.68;6.10;;;;;;;;;;5067450;28;20298;-67
2022/11/06 00:04:42;;;;;;;11.35;6.68;;;;;;;;;;5079220;28;20211;-68
2022/11/06 00:07:07;;;;;;;10.48;5.97;;;;;;;;;;5080350;28;20698;-67
2022/11/06 00:09:33;;;;;;;13.30;6.13;;;;;;;;;;5082148;28;20172;-67
2022/11/06 00:11:59;;;;;;;12.02;6.10;;;;;;;;;;5075142;28;20188;-67
2022/11/06 00:14:24;;;;;;;14.40;6.32;;;;;;;;;;5082323;28;20180;-68
2022/11/06 00:16:49;;;;;;;12.65;5.93;;;;;;;;;;5073751;28;20689;-68
2022/11/06 00:19:16;;;;;;;11.70;6.00;;;;;;;;;;5073958;28;20617;-67
2022/11/06 00:21:42;;;;;;;9.95;5.68;;;;;;;;;;5071986;28;20789;-68
2022/11/06 00:24:08;;;;;;;11.23;5.72;;;;;;;;;;5073003;28;20199;-67
2022/11/06 00:26:34;;;;;;;12.20;6.45;;;;;;;;;;5075864;28;20214;-67
2022/11/06 00:29:01;;;;;;;9.45;5.72;;;;;;;;;;5076581;28;20604;-68
2022/11/06 00:31:30;;;;;;;13.75;7.10;;;;;;;;;;5069825;28;20258;-67
2022/11/06 00:33:57;;;;;;;9.65;5.72;;;;;;;;;;5069009;28;20185;-67
2022/11/06 00:36:24;;;;;;;11.90;6.72;;;;;;;;;;5076569;28;20665;-67
2022/11/06 00:38:52;;;;;;;10.85;5.32;;;;;;;;;;5073101;28;20234;-67
2022/11/06 00:41:17;;;;;;;14.05;6.07;;;;;;;;;;5068903;28;20188;-67
2022/11/06 00:43:48;;;;;;;9.80;6.10;;;;;;;;;;5067757;28;20227;-68
2022/11/06 00:46:14;;;;;;;9.55;5.57;;;;;;;;;;5072229;28;20316;-67
2022/11/06 00:48:40;;;;;;;13.35;5.53;;;;;;;;;;5070735;28;20367;-68
2022/11/06 00:51:13;;;;;;;11.38;5.60;;;;;;;;;;5080267;28;20191;-67
2022/11/06 00:53:39;;;;;;;12.93;6.03;;;;;;;;;;5079583;28;20173;-72
2022/11/06 00:56:05;;;;;;;12.65;5.47;;;;;;;;;;5080272;28;20189;-67
2022/11/06 00:58:31;;;;;;;14.48;7.07;;;;;;;;;;5075324;28;20644;-68
2022/11/06 01:01:10;;;;;;;12.52;5.95;;;;;;;;;;5081518;28;20187;-67
2022/11/06 01:03:39;;;;;;;11.52;5.13;;;;;;;;;;5072044;28;20197;-67
2022/11/06 01:06:11;;;;;;;10.20;5.22;;;;;;;;;;5069477;28;20258;-67
2022/11/06 01:08:37;;;;;;;7.90;4.75;;;;;;;;;;5074836;28;20263;-67
2022/11/06 01:11:15;;;;;;;9.27;5.32;;;;;;;;;;5071696;28;20611;-67
2022/11/06 01:13:41;;;;;;;10.35;4.80;;;;;;;;;;5074333;28;20662;-68
2022/11/06 01:16:09;;;;;;;11.15;5.10;;;;;;;;;;5085558;28;20181;-67
2022/11/06 01:18:36;;;;;;;10.93;4.88;;;;;;;;;;5080630;28;20192;-67
2022/11/06 01:21:14;;;;;;;9.15;4.22;;;;;;;;;;5068402;28;20177;-67
2022/11/06 01:23:40;;;;;;;8.80;4.82;;;;;;;;;;5074565;28;20687;-67
2022/11/06 01:26:07;;;;;;;6.55;4.38;;;;;;;;;;5071053;28;20262;-67
2022/11/06 01:28:33;;;;;;;12.23;5.47;;;;;;;;;;5081951;28;20187;-67
2022/11/06 01:31:07;;;;;;;10.33;4.97;;;;;;;;;;5082407;28;20184;-67
2022/11/06 01:33:33;;;;;;;9.38;4.25;;;;;;;;;;5077263;28;20195;-67
2022/11/06 01:35:59;;;;;;;12.27;4.90;;;;;;;;;;5077664;28;20181;-67
2022/11/06 01:38:24;;;;;;;10.82;4.32;;;;;;;;;;5085350;28;20179;-67
2022/11/06 01:40:49;;;;;;;7.70;4.63;;;;;;;;;;5076417;28;20188;-68
2022/11/06 01:43:18;;;;;;;11.55;4.32;;;;;;;;;;5074249;28;20558;-67
2022/11/06 01:45:47;;;;;;;13.15;4.78;;;;;;;;;;5077596;28;20177;-68
2022/11/06 01:48:13;;;;;;;8.73;4.60;;;;;;;;;;5074598;28;20223;-67
2022/11/06 01:50:42;;;;;;;9.17;4.03;;;;;;;;;;5069462;28;20196;-67
2022/11/06 01:53:07;;;;;;;14.90;4.95;;;;;;;;;;5078343;28;20272;-67
2022/11/06 01:55:40;;;;;;;9.13;4.50;;;;;;;;;;5073883;28;20282;-69
2022/11/06 01:58:08;;;;;;;12.20;4.22;;;;;;;;;;5078837;28;20585;-67
2022/11/06 02:00:34;;;;;;;11.85;4.68;;;;;;;;;;5085170;28;20180;-67
2022/11/06 02:03:01;;;;;;;9.27;4.60;;;;;;;;;;5081634;28;20211;-67
2022/11/06 02:05:26;;;;;;;9.25;4.00;;;;;;;;;;5069590;28;20187;-67
2022/11/06 02:07:53;;;;;;;7.65;4.03;;;;;;;;;;5071292;28;20180;-67
2022/11/06 02:10:19;;;;;;;8.57;4.40;;;;;;;;;;5070703;28;20172;-67
2022/11/06 02:13:10;;;;;;;10.17;4.57;;;;;;;;;;5083018;28;20176;-67
2022/11/06 02:15:47;;;;;;;10.20;4.25;;;;;;;;;;5047826;28;20207;-67
2022/11/06 02:18:12;;;;;;;7.45;4.35;;;;;;;;;;5080447;28;20202;-67
2022/11/06 02:21:02;;;;;;;13.45;6.07;;;;;;;;;;5077769;28;20188;-67
2022/11/06 02:23:44;;;;;;;11.55;3.92;;;;;;;;;;5071871;28;20195;-67
2022/11/06 02:26:27;;;;;;;8.40;3.40;;;;;;;;;;5072160;28;20226;-67
2022/11/06 02:28:59;;;;;;;11.15;3.97;;;;;;;;;;5088568;28;20543;-67
2022/11/06 02:31:31;;;;;;;7.60;3.33;;;;;;;;;;5071453;28;20281;-67
2022/11/06 02:34:01;;;;;;;6.22;3.53;;;;;;;;;;5081372;28;20176;-67
2022/11/06 02:36:37;;;;;;;7.57;3.70;;;;;;;;;;5070571;28;20180;-68
2022/11/06 02:39:10;;;;;;;10.35;3.88;;;;;;;;;;5074564;28;20208;-68
2022/11/06 02:41:40;;;;;;;8.00;4.00;;;;;;;;;;5067825;28;20181;-67
2022/11/06 02:44:10;;;;;;;6.97;3.65;;;;;;;;;;5076172;28;20535;-67
2022/11/06 02:46:38;;;;;;;10.15;3.75;;;;;;;;;;5082191;28;20495;-68
2022/11/06 02:49:08;;;;;;;11.05;3.40;;;;;;;;;;5078962;28;20187;-67
2022/11/06 02:51:39;;;;;;;9.05;3.22;;;;;;;;;;5084774;28;20188;-67
2022/11/06 02:54:05;;;;;;;7.38;2.83;;;;;;;;;;5078148;28;20188;-67
2022/11/06 02:56:36;;;;;;;9.83;3.43;;;;;;;;;;5067989;28;20184;-67
2022/11/06 02:59:08;;;;;;;8.88;3.22;;;;;;;;;;5078747;28;20493;-67
2022/11/06 03:01:48;;;;;;;6.63;2.80;;;;;;;;;;5084482;28;20198;-67
2022/11/06 03:04:34;;;;;;;11.38;3.00;;;;;;;;;;5080419;28;20233;-67
2022/11/06 03:07:30;;;;;;;6.60;2.70;;;;;;;;;;5068555;28;20537;-67
2022/11/06 03:09:56;;;;;;;13.43;3.40;;;;;;;;;;5074192;28;20195;-67
2022/11/06 03:12:28;;;;;;;6.10;2.90;;;;;;;;;;5080188;28;20529;-66
2022/11/06 03:15:02;;;;;;;5.38;2.75;;;;;;;;;;5075588;28;20229;-67
2022/11/06 03:17:45;;;;;;;8.75;3.00;;;;;;;;;;5084765;28;20180;-67
2022/11/06 03:20:16;;;;;;;9.48;2.88;;;;;;;;;;5079925;28;20676;-67
2022/11/06 03:22:54;;;;;;;9.15;3.03;;;;;;;;;;5080705;28;20211;-67
2022/11/06 03:25:34;;;;;;;8.82;2.63;;;;;;;;;;5086616;28;20191;-67
2022/11/06 03:28:07;;;;;;;13.63;2.60;;;;;;;;;;5076361;28;20543;-67
2022/11/06 03:30:37;;;;;;;8.48;2.42;;;;;;;;;;5076240;28;20579;-67
2022/11/06 03:33:20;;;;;;;7.90;2.55;;;;;;;;;;5077336;28;20236;-67
2022/11/06 03:35:47;;;;;;;8.52;3.17;;;;;;;;;;5083318;28;20267;-67
2022/11/06 03:38:26;;;;;;;7.25;2.65;;;;;;;;;;5079166;28;20234;-67
2022/11/06 03:40:57;;;;;;;6.25;2.38;;;;;;;;;;5075539;28;20621;-67
2022/11/06 03:43:27;;;;;;;9.23;2.30;;;;;;;;;;5086416;28;20184;-67
2022/11/06 03:45:54;;;;;;;8.77;2.65;;;;;;;;;;5087266;28;20176;-67
2022/11/06 03:48:35;;;;;;;7.20;2.65;;;;;;;;;;5082344;28;20702;-67
2022/11/06 03:51:08;;;;;;;12.77;2.88;;;;;;;;;;5082236;28;20624;-67
2022/11/06 03:53:39;;;;;;;8.38;2.40;;;;;;;;;;5074591;28;20235;-67
2022/11/06 03:56:09;;;;;;;9.38;2.58;;;;;;;;;;5068018;28;20517;-67
2022/11/06 03:58:41;;;;;;;12.63;2.92;;;;;;;;;;5082243;28;20210;-67
2022/11/06 04:01:08;;;;;;;10.43;2.03;;;;;;;;;;5074947;28;20388;-67
2022/11/06 04:04:01;;;;;;;4.68;2.22;;;;;;;;;;5079584;28;20204;-67
2022/11/06 04:06:37;;;;;;;10.43;2.75;;;;;;;;;;5069118;28;20188;-67
2022/11/06 04:14:37;;;;;;;9.90;2.40;;;;;;;;;;5084200;28;20213;-67
2022/11/06 04:17:06;;;;;;;8.77;3.15;;;;;;;;;;5080632;28;20233;-69
2022/11/06 04:19:31;;;;;;;9.20;2.15;;;;;;;;;;5075570;28;20186;-67
2022/11/06 04:22:26;;;;;;;6.60;2.38;;;;;;;;;;5075852;28;20192;-67
2022/11/06 04:28:31;;;;;;;9.25;2.33;;;;;;;;;;5083596;28;20901;-67
2022/11/06 04:31:26;;;;;;;3.85;2.03;;;;;;;;;;5072446;28;20270;-67
2022/11/06 04:34:00;;;;;;;8.90;2.33;;;;;;;;;;5073952;28;20180;-67
2022/11/06 04:36:45;;;;;;;7.85;1.90;;;;;;;;;;5071993;28;20184;-67
2022/11/06 04:39:13;;;;;;;7.40;2.20;;;;;;;;;;5074629;28;20168;-66
2022/11/06 04:41:42;;;;;;;7.25;2.60;;;;;;;;;;5073656;28;20191;-67
2022/11/06 04:44:31;;;;;;;11.60;2.63;;;;;;;;;;5082223;28;20227;-67
2022/11/06 04:46:59;;;;;;;6.00;1.90;;;;;;;;;;5080330;28;20291;-67
2022/11/06 04:49:27;;;;;;;10.82;2.20;;;;;;;;;;5074110;28;20212;-67
2022/11/06 04:51:53;;;;;;;9.93;2.00;;;;;;;;;;5072965;28;20241;-67
2022/11/06 04:54:18;;;;;;;8.65;2.47;;;;;;;;;;5077051;28;20708;-67
2022/11/06 04:56:44;;;;;;;9.43;1.90;;;;;;;;;;5073685;28;20189;-67
2022/11/06 04:59:12;;;;;;;6.90;1.80;;;;;;;;;;5079219;28;20176;-67
2022/11/06 05:01:38;;;;;;;4.82;2.10;;;;;;;;;;5075557;28;20176;-67
2022/11/06 05:04:03;;;;;;;9.95;1.98;;;;;;;;;;5077113;28;20545;-67
2022/11/06 05:06:28;;;;;;;10.00;2.25;;;;;;;;;;5069171;28;20664;-67
2022/11/06 05:08:54;;;;;;;10.85;2.40;;;;;;;;;;5084639;28;20184;-67
2022/11/06 05:11:19;;;;;;;5.93;2.17;;;;;;;;;;5072978;28;20240;-67
2022/11/06 05:13:45;;;;;;;10.73;2.33;;;;;;;;;;5072263;28;20184;-67
2022/11/06 05:16:10;;;;;;;6.40;2.00;;;;;;;;;;5066690;28;20181;-67
2022/11/06 05:18:35;;;;;;;7.43;2.08;;;;;;;;;;5076609;28;20176;-68
2022/11/06 05:23:45;;;;;;;8.52;2.05;;;;;;;;;;5081940;28;20339;-67
2022/11/06 05:26:11;;;;;;;6.35;1.92;;;;;;;;;;5069889;28;20217;-68
2022/11/06 05:28:36;;;;;;;6.97;2.00;;;;;;;;;;5081427;28;20196;-67
2022/11/06 05:31:02;;;;;;;9.15;2.50;;;;;;;;;;5073273;28;20289;-67
2022/11/06 05:33:27;;;;;;;11.77;2.15;;;;;;;;;;5077481;28;20215;-67
2022/11/06 05:35:53;;;;;;;9.13;2.22;;;;;;;;;;5076409;28;20211;-67
2022/11/06 05:38:18;;;;;;;7.15;2.15;;;;;;;;;;5077169;28;20666;-67
2022/11/06 05:40:45;;;;;;;7.88;2.58;;;;;;;;;;5071909;28;20413;-67
2022/11/06 05:43:10;;;;;;;13.73;2.58;;;;;;;;;;5072255;28;20204;-67
2022/11/06 05:45:35;;;;;;;11.05;2.20;;;;;;;;;;5084161;28;20186;-67
2022/11/06 05:48:00;;;;;;;8.32;2.33;;;;;;;;;;5078594;28;20271;-67
2022/11/06 05:50:26;;;;;;;6.50;1.77;;;;;;;;;;5080900;28;20191;-67
2022/11/06 05:52:51;;;;;;;7.93;1.83;;;;;;;;;;5068924;28;20264;-67
2022/11/06 05:55:17;;;;;;;8.55;1.90;;;;;;;;;;5070736;28;20191;-67
2022/11/06 05:57:42;;;;;;;5.07;1.98;;;;;;;;;;5080418;28;20171;-67
2022/11/06 06:00:10;;;;;;;11.52;1.85;;;;;;;;;;5076367;28;20541;-67
2022/11/06 06:02:36;;;;;;;5.28;1.92;;;;;;;;;;5073796;28;20205;-67
2022/11/06 06:05:02;;;;;;;5.28;2.10;;;;;;;;;;5078111;28;20179;-68
2022/11/06 06:07:28;;;;;;;10.80;2.00;;;;;;;;;;5072183;28;20179;-67
2022/11/06 06:09:53;;;;;;;9.23;1.92;;;;;;;;;;5075926;28;20556;-67
2022/11/06 06:12:19;;;;;;;8.15;2.28;;;;;;;;;;5072520;28;20200;-67
2022/11/06 06:14:44;;;;;;;10.80;2.03;;;;;;;;;;5075548;28;20347;-68
2022/11/06 06:17:09;;;;;;;8.52;1.52;;;;;;;;;;5087867;28;20566;-67
2022/11/06 06:19:35;;;;;;;7.35;2.35;;;;;;;;;;5080000;28;20188;-68
2022/11/06 06:22:00;;;;;;;6.40;2.20;;;;;;;;;;5074752;28;20191;-68
2022/11/06 06:24:25;;;;;;;7.93;2.13;;;;;;;;;;5074558;28;20189;-68
2022/11/06 06:26:51;;;;;;;7.50;1.70;;;;;;;;;;5068434;28;20233;-67
2022/11/06 06:29:16;;;;;;;7.10;1.80;;;;;;;;;;5068768;28;20263;-67
2022/11/06 06:31:41;;;;;;;10.10;1.90;;;;;;;;;;5070804;28;20276;-67
2022/11/06 06:34:06;;;;;;;5.97;1.80;;;;;;;;;;5074602;28;20177;-67
2022/11/06 06:36:32;;;;;;;7.95;2.00;;;;;;;;;;5068439;28;20233;-67
2022/11/06 06:38:57;;;;;;;7.88;1.92;;;;;;;;;;5069638;28;20230;-67
2022/11/06 06:41:23;;;;;;;8.95;1.88;;;;;;;;;;5068854;28;20172;-68
2022/11/06 06:43:48;;;;;;;7.80;1.90;;;;;;;;;;5074649;28;20195;-68
2022/11/06 06:46:14;;;;;;;6.15;1.90;;;;;;;;;;5074801;28;20192;-68
2022/11/06 06:48:39;;;;;;;8.70;2.50;;;;;;;;;;5075502;28;20184;-68
2022/11/06 06:51:06;;;;;;;8.27;1.88;;;;;;;;;;5070683;28;20213;-68
2022/11/06 06:53:32;;;;;;;5.85;1.73;;;;;;;;;;5074309;28;20180;-68
2022/11/06 06:55:59;;;;;;;7.63;1.70;;;;;;;;;;5068725;28;20204;-67
2022/11/06 06:58:25;;;;;;;7.70;1.88;;;;;;;;;;5070213;28;20233;-67
2022/11/06 07:00:50;;;;;;;6.55;1.77;;;;;;;;;;5073493;28;20184;-67
2022/11/06 07:03:15;;;;;;;10.40;2.10;;;;;;;;;;5074400;28;20284;-68
2022/11/06 07:05:41;;;;;;;11.20;2.20;;;;;;;;;;5071630;28;20331;-68
2022/11/06 07:08:06;;;;;;;4.00;1.27;;;;;;;;;;5072272;28;20207;-68
2022/11/06 07:10:31;;;;;;;11.48;1.73;;;;;;;;;;5069695;28;20238;-68
2022/11/06 07:13:04;;;;;;;5.38;1.83;;;;;;;;;;5074740;28;20199;-68
2022/11/06 07:15:29;;;;;;;6.20;2.53;;;;;;;;;;5070882;28;20176;-67
2022/11/06 07:17:54;;;;;;;8.55;1.77;;;;;;;;;;5071434;28;20640;-68
2022/11/06 07:20:20;;;;;;;6.82;1.70;;;;;;;;;;5075155;28;20691;-67
2022/11/06 07:22:45;;;;;;;4.43;1.40;;;;;;;;;;5074547;28;20208;-67
2022/11/06 07:25:10;;;;;;;5.07;1.60;;;;;;;;;;5069366;28;20181;-67
2022/11/06 07:27:36;;;;;;;8.88;2.00;;;;;;;;;;5075225;28;20271;-67
2022/11/06 07:30:02;;;;;;;9.20;1.70;;;;;;;;;;5077419;28;20528;-67
2022/11/06 07:32:27;;;;;;;8.73;1.40;;;;;;;;;;5065556;28;20227;-68
2022/11/06 07:34:53;;;;;;;8.32;1.83;;;;;;;;;;5073448;28;20188;-68
2022/11/06 07:37:18;;;;;;;5.07;1.65;;;;;;;;;;5074740;28;20185;-68
2022/11/06 07:39:43;;;;;;;3.83;1.52;;;;;;;;;;5071750;28;20494;-68
2022/11/06 07:42:09;;;;;;;6.60;1.58;;;;;;;;;;5066493;28;20271;-68
2022/11/06 07:44:34;;;;;;;6.90;1.73;;;;;;;;;;5070659;28;20802;-67
2022/11/06 07:46:59;;;;;;;10.40;1.80;;;;;;;;;;5076510;28;20614;-68
2022/11/06 07:49:24;;;;;;;5.55;2.20;;;;;;;;;;5073549;28;20173;-69
2022/11/06 07:51:50;;;;;;;6.40;1.70;;;;;;;;;;5074556;28;20192;-68
2022/11/06 07:54:15;;;;;;;5.53;1.67;;;;;;;;;;5075983;28;20177;-69
2022/11/06 07:56:41;;;;;;;12.05;2.85;;;;;;;;;;5079002;28;20709;-68
2022/11/06 07:59:06;;;;;;;6.88;1.65;;;;;;;;;;5078250;28;20180;-68
2022/11/06 08:01:31;;;;;;;7.07;1.77;;;;;;;;;;5085212;28;20176;-67
2022/11/06 08:03:56;;;;;;;6.55;1.80;;;;;;;;;;5080591;28;20648;-67
2022/11/06 08:06:22;;;;;;;6.57;1.60;;;;;;;;;;5091536;28;20172;-67
2022/11/06 08:08:47;;;;;;;9.27;2.15;;;;;;;;;;5077101;28;20179;-69
2022/11/06 08:11:13;;;;;;;7.90;1.77;;;;;;;;;;5071484;28;20276;-68
2022/11/06 08:13:39;;;;;;;8.73;2.05;;;;;;;;;;5078212;28;20551;-69
2022/11/06 08:16:12;;;;;;;7.20;1.60;;;;;;;;;;5077702;28;20538;-68
2022/11/06 08:18:38;;;;;;;7.53;2.05;;;;;;;;;;5083059;28;20199;-68
2022/11/06 08:21:05;;;;;;;5.97;1.58;;;;;;;;;;5077201;28;20220;-68
2022/11/06 08:23:31;;;;;;;7.95;1.88;;;;;;;;;;5080044;28;20200;-68
2022/11/06 08:25:59;;;;;;;7.22;2.13;;;;;;;;;;5078139;28;20188;-68
2022/11/06 08:28:25;;;;;;;9.13;1.67;;;;;;;;;;5075792;28;20180;-68
2022/11/06 08:30:51;;;;;;;3.75;1.50;;;;;;;;;;5080928;28;20215;-69
2022/11/06 08:33:18;;;;;;;7.85;1.80;;;;;;;;;;5072190;28;20659;-69
2022/11/06 08:35:44;;;;;;;6.82;1.65;;;;;;;;;;5072643;28;20201;-68
2022/11/06 08:38:09;;;;;;;5.65;1.70;;;;;;;;;;5080810;28;20510;-69
2022/11/06 08:40:36;;;;;;;5.85;1.48;;;;;;;;;;5085336;28;20198;-69
2022/11/06 08:43:04;;;;;;;8.05;1.90;;;;;;;;;;5081815;28;20644;-68
2022/11/06 08:45:29;;;;;;;7.97;1.80;;;;;;;;;;5076479;28;20168;-68
2022/11/06 08:48:00;;;;;;;4.68;1.50;;;;;;;;;;5072374;28;20177;-68
2022/11/06 08:50:25;;;;;;;6.78;1.80;;;;;;;;;;5070729;28;20258;-69
2022/11/06 08:52:51;;;;;;;6.00;1.55;;;;;;;;;;5076208;28;20207;-69
2022/11/06 08:55:16;;;;;;;8.55;1.83;;;;;;;;;;5077891;28;20193;-68
2022/11/06 08:57:41;;;;;;;4.22;1.52;;;;;;;;;;5072614;28;20189;-69
2022/11/06 09:00:07;;;;;;;6.85;1.63;;;;;;;;;;5075217;28;20177;-69
2022/11/06 09:02:33;;;;;;;5.43;1.70;;;;;;;;;;5071385;28;20657;-68
2022/11/06 09:04:58;;;;;;;5.88;1.75;;;;;;;;;;5069984;28;20212;-69
2022/11/06 09:07:23;;;;;;;7.90;1.70;;;;;;;;;;5068476;28;20184;-69
2022/11/06 09:09:49;;;;;;;4.55;1.58;;;;;;;;;;5069264;28;20177;-68
2022/11/06 09:12:14;;;;;;;8.07;1.65;;;;;;;;;;5079484;28;20540;-69
2022/11/06 09:14:40;;;;;;;5.22;1.73;;;;;;;;;;5069756;28;20181;-69
2022/11/06 09:17:05;;;;;;;7.05;2.00;;;;;;;;;;5071519;28;20431;-69
2022/11/06 09:19:31;;;;;;;5.57;1.60;;;;;;;;;;5073564;28;20233;-68
2022/11/06 09:21:56;;;;;;;9.52;2.33;;;;;;;;;;5070788;28;20258;-68
2022/11/06 09:24:22;;;;;;;9.45;1.85;;;;;;;;;;5069947;28;20200;-68
2022/11/06 09:26:47;;;;;;;8.25;2.00;;;;;;;;;;5072892;28;20184;-68
2022/11/06 09:29:12;;;;;;;6.80;1.67;;;;;;;;;;5068472;28;20183;-68
2022/11/06 09:31:37;;;;;;;5.50;1.67;;;;;;;;;;5072366;28;20235;-68
2022/11/06 09:34:03;;;;;;;10.48;1.55;;;;;;;;;;5069415;28;20184;-68
2022/11/06 09:36:28;;;;;;;11.65;2.03;;;;;;;;;;5066656;28;20204;-68
2022/11/06 09:38:53;;;;;;;8.52;1.42;;;;;;;;;;5069159;28;20169;-68
2022/11/06 09:41:29;;;;;;;6.60;1.67;;;;;;;;;;5070542;28;20189;-68
2022/11/06 09:44:18;;;;;;;5.57;1.60;;;;;;;;;;5069527;28;20826;-68
2022/11/06 09:46:45;;;;;;;7.28;1.10;;;;;;;;;;5040839;28;20213;-69
2022/11/06 09:49:27;;;;;;;5.43;1.50;;;;;;;;;;5074625;28;20181;-68
2022/11/06 09:52:07;;;;;;;6.72;1.50;;;;;;;;;;5068266;28;20192;-68
2022/11/06 09:54:45;;;;;;;6.70;1.52;;;;;;;;;;5071913;28;20542;-68
2022/11/06 09:57:24;;;;;;;5.25;1.00;;;;;;;;;;5071782;28;20271;-68
2022/11/06 09:59:50;;;;;;;8.43;1.77;;;;;;;;;;5067417;28;20184;-68
2022/11/06 10:02:28;;;;;;;4.68;1.33;;;;;;;;;;5072057;28;20245;-68
2022/11/06 10:05:01;;;;;;;10.75;1.73;;;;;;;;;;5081794;28;20186;-68
2022/11/06 10:07:29;;;;;;;7.15;1.00;;;;;;;;;;5069951;28;20723;-69
2022/11/06 10:09:55;;;;;;;6.05;1.58;;;;;;;;;;5080353;28;20598;-68
2022/11/06 10:12:33;;;;;;;5.65;1.02;;;;;;;;;;5085149;28;20244;-68
2022/11/06 10:15:16;;;;;;;10.70;1.85;;;;;;;;;;5073478;28;20317;-67
2022/11/06 10:17:47;;;;;;;4.88;0.90;;;;;;;;;;5081469;28;20256;-68
2022/11/06 10:20:28;;;;;;;4.38;1.05;;;;;;;;;;5082947;28;20172;-68
2022/11/06 10:23:03;;;;;;;5.13;1.35;;;;;;;;;;5070814;28;20644;-68
2022/11/06 10:25:50;;;;;;;5.43;1.42;;;;;;;;;;5075956;28;20172;-68
2022/11/06 10:28:19;;;;;;;10.23;1.67;;;;;;;;;;5066874;28;20188;-68
2022/11/06 10:31:02;;;;;;;3.53;1.17;;;;;;;;;;5069543;28;20212;-69
2022/11/06 10:33:37;;;;;;;6.47;1.48;;;;;;;;;;5069576;28;20676;-68
2022/11/06 10:36:03;;;;;;;3.97;1.38;;;;;;;;;;5080098;28;20183;-68
2022/11/06 10:38:34;;;;;;;6.88;1.45;;;;;;;;;;5076593;28;20301;-68
2022/11/06 10:41:00;;;;;;;5.38;1.25;;;;;;;;;;5069579;28;20688;-68
2022/11/06 10:43:34;;;;;;;3.58;1.52;;;;;;;;;;5081731;28;20204;-68
2022/11/06 10:46:09;;;;;;;6.18;1.33;;;;;;;;;;5077808;28;20241;-68
2022/11/06 10:48:44;;;;;;;7.50;1.27;;;;;;;;;;5068459;28;20174;-68
2022/11/06 10:51:28;;;;;;;7.38;1.40;;;;;;;;;;5075351;28;20195;-68
2022/11/06 10:54:21;;;;;;;5.32;1.23;;;;;;;;;;5081454;28;20551;-68
2022/11/06 10:56:56;;;;;;;7.20;1.77;;;;;;;;;;5073773;28;20528;-68
2022/11/06 10:59:21;;;;;;;5.68;1.35;;;;;;;;;;5070571;28;20195;-68
2022/11/06 11:01:47;;;;;;;8.40;1.73;;;;;;;;;;5072961;28;20525;-68
2022/11/06 11:04:12;;;;;;;5.00;1.55;;;;;;;;;;5071460;28;20189;-68
2022/11/06 11:06:38;;;;;;;4.10;1.55;;;;;;;;;;5074214;28;20265;-69
2022/11/06 11:09:28;;;;;;;4.60;1.23;;;;;;;;;;5073703;28;20263;-67
2022/11/06 11:11:54;;;;;;;6.38;1.42;;;;;;;;;;5063584;28;20184;-68
2022/11/06 11:14:25;;;;;;;4.82;1.52;;;;;;;;;;5069410;28;20729;-68
2022/11/06 11:16:51;;;;;;;4.93;1.48;;;;;;;;;;5070213;28;20208;-68
2022/11/06 11:19:26;;;;;;;8.27;1.65;;;;;;;;;;5076695;28;20226;-67
2022/11/06 11:22:03;;;;;;;8.93;1.65;;;;;;;;;;5084833;28;20285;-67
2022/11/06 11:24:29;;;;;;;4.57;1.50;;;;;;;;;;5071199;28;20203;-69
2022/11/06 11:27:02;;;;;;;5.43;1.63;;;;;;;;;;5076831;28;20191;-68
2022/11/06 11:29:32;;;;;;;4.63;1.05;;;;;;;;;;5080062;28;20241;-67
2022/11/06 11:32:04;;;;;;;4.20;1.27;;;;;;;;;;5084551;28;20245;-68
2022/11/06 11:34:34;;;;;;;4.15;1.23;;;;;;;;;;5074365;28;20191;-67
2022/11/06 11:37:04;;;;;;;6.13;1.52;;;;;;;;;;5087521;28;20360;-68
2022/11/06 11:39:41;;;;;;;6.13;1.27;;;;;;;;;;5072643;28;20177;-68
2022/11/06 11:42:30;;;;;;;4.40;1.08;;;;;;;;;;5073911;28;20655;-67
2022/11/06 11:45:08;;;;;;;5.82;1.25;;;;;;;;;;5068678;28;20185;-68
2022/11/06 11:47:34;;;;;;;4.07;1.25;;;;;;;;;;5078602;28;20184;-69
2022/11/06 11:50:16;;;;;;;5.65;1.25;;;;;;;;;;5073921;28;20232;-69
2022/11/06 11:52:46;;;;;;;6.05;1.27;;;;;;;;;;5073968;28;20196;-66
2022/11/06 11:55:20;;;;;;;6.22;1.40;;;;;;;;;;5074340;28;20211;-67
2022/11/06 11:57:48;;;;;;;3.88;1.40;;;;;;;;;;5078690;28;20218;-69
2022/11/06 12:00:17;;;;;;;5.75;1.35;;;;;;;;;;5078877;28;20184;-69
2022/11/06 12:02:48;;;;;;;9.13;1.33;;;;;;;;;;5077261;28;20299;-68
2022/11/06 12:05:41;;;;;;;7.57;1.75;;;;;;;;;;5079998;28;20412;-69
2022/11/06 12:08:20;;;;;;;5.65;1.45;;;;;;;;;;5072070;28;20209;-68
2022/11/06 12:10:46;;;;;;;8.52;1.38;;;;;;;;;;5077687;28;20189;-68
2022/11/06 12:13:19;;;;;;;6.65;1.50;;;;;;;;;;5076836;28;20177;-68
2022/11/06 12:16:05;;;;;;;5.97;1.60;;;;;;;;;;5070813;28;20199;-68
2022/11/06 12:18:44;;;;;;;4.93;1.30;;;;;;;;;;5074081;28;20507;-67
2022/11/06 12:21:34;;;;;;;4.82;1.20;;;;;;;;;;5073730;28;20180;-68
2022/11/06 12:24:03;;;;;;;2.80;1.10;;;;;;;;;;5086951;28;20298;-69
2022/11/06 12:26:50;;;;;;;4.93;1.23;;;;;;;;;;5070888;28;20200;-69
2022/11/06 12:29:23;;;;;;;4.95;1.48;;;;;;;;;;5081373;28;20196;-68
2022/11/06 12:31:55;;;;;;;3.20;1.10;;;;;;;;;;5078483;28;20236;-68
2022/11/06 12:34:35;;;;;;;5.10;1.17;;;;;;;;;;5086849;28;20652;-68
2022/11/06 12:37:07;;;;;;;7.35;1.20;;;;;;;;;;5079963;28;20195;-68
2022/11/06 12:39:36;;;;;;;4.82;1.20;;;;;;;;;;5075628;28;20662;-68
2022/11/06 12:42:03;;;;;;;4.20;1.10;;;;;;;;;;5079682;28;20192;-69
2022/11/06 12:44:28;;;;;;;3.60;1.33;;;;;;;;;;5075443;28;20193;-69
2022/11/06 12:47:23;;;;;;;7.85;1.02;;;;;;;;;;5075613;28;20483;-68
2022/11/06 12:50:07;;;;;;;6.20;1.30;;;;;;;;;;5075848;28;20187;-68
2022/11/06 12:52:47;;;;;;;4.35;1.10;;;;;;;;;;5079116;28;20766;-69
2022/11/06 12:55:28;;;;;;;7.55;1.20;;;;;;;;;;5071865;28;20242;-69
2022/11/06 12:58:05;;;;;;;2.90;1.05;;;;;;;;;;5082893;28;20184;-69
2022/11/06 13:00:59;;;;;;;3.80;1.25;;;;;;;;;;5070168;28;20648;-68
2022/11/06 13:04:03;;;;;;;5.18;1.50;;;;;;;;;;5072744;28;20192;-68
2022/11/06 13:06:47;;;;;;;6.68;1.75;;;;;;;;;;5076688;28;20279;-68
2022/11/06 13:09:29;;;;;;;3.97;1.58;;;;;;;;;;5072694;28;20181;-69
2022/11/06 13:12:10;;;;;;;3.35;1.60;;;;;;;;;;5073482;28;20660;-69
2022/11/06 13:14:46;;;;;;;11.95;2.13;;;;;;;;;;5075106;28;20184;-68
2022/11/06 13:17:29;;;;;;;5.38;1.92;;;;;;;;;;5072719;28;20184;-68
2022/11/06 13:20:02;;;;;;;7.00;2.33;;;;;;;;;;5072008;28;20246;-67
2022/11/06 13:22:50;;;;;;;6.93;2.15;;;;;;;;;;5073331;28;20679;-67
2022/11/06 13:25:23;;;;;;;9.13;1.92;;;;;;;;;;5076149;28;20180;-68
2022/11/06 13:28:07;;;;;;;5.72;1.70;;;;;;;;;;5069945;28;20180;-68
2022/11/06 13:30:37;;;;;;;6.88;1.70;;;;;;;;;;5072999;28;20195;-68
2022/11/06 13:33:19;;;;;;;6.13;1.98;;;;;;;;;;5069528;28;20680;-68
2022/11/06 13:35:45;;;;;;;7.78;1.88;;;;;;;;;;5071403;28;20196;-69
2022/11/06 13:38:20;;;;;;;7.20;1.77;;;;;;;;;;5083041;28;20188;-68
2022/11/06 13:40:52;;;;;;;8.52;2.05;;;;;;;;;;5077107;28;20188;-68
2022/11/06 13:43:22;;;;;;;6.75;2.22;;;;;;;;;;5082148;28;20196;-69
2022/11/06 13:46:06;;;;;;;8.40;1.40;;;;;;;;;;5069202;28;20203;-68
2022/11/06 13:48:31;;;;;;;8.25;2.38;;;;;;;;;;5070080;28;20253;-68
2022/11/06 13:51:40;;;;;;;4.47;1.77;;;;;;;;;;5069172;28;20177;-68
2022/11/06 13:54:11;;;;;;;4.78;1.88;;;;;;;;;;5053226;28;20184;-68
2022/11/06 13:57:08;;;;;;;7.85;1.80;;;;;;;;;;5065202;28;20192;-69
2022/11/06 14:00:08;;;;;;;10.35;1.95;;;;;;;;;;5030650;28;20208;-69
2022/11/06 14:03:07;;;;;;;4.93;1.65;;;;;;;;;;5071213;28;20196;-69
2022/11/06 14:05:50;;;;;;;6.78;1.70;;;;;;;;;;5071297;28;20333;-69
2022/11/06 14:08:18;;;;;;;6.50;1.98;;;;;;;;;;5074117;28;20553;-69
2022/11/06 14:10:51;;;;;;;9.13;1.88;;;;;;;;;;5064025;28;20553;-68
2022/11/06 14:13:23;;;;;;;8.85;1.90;;;;;;;;;;5064030;28;20657;-68
2022/11/06 14:15:48;;;;;;;6.93;1.55;;;;;;;;;;5062148;28;20683;-68
2022/11/06 14:18:21;;;;;;;6.60;1.80;;;;;;;;;;5066819;28;20256;-70
2022/11/06 14:20:46;;;;;;;4.57;1.70;;;;;;;;;;5066311;28;20382;-69
2022/11/06 14:23:30;;;;;;;7.43;1.77;;;;;;;;;;5065080;28;20318;-69
2022/11/06 14:26:08;;;;;;;8.30;1.75;;;;;;;;;;5067290;28;20208;-69
2022/11/06 14:28:42;;;;;;;4.35;2.00;;;;;;;;;;5071214;28;20180;-69
2022/11/06 14:31:09;;;;;;;8.27;1.90;;;;;;;;;;5065990;28;20804;-68
2022/11/06 14:33:43;;;;;;;5.10;1.83;;;;;;;;;;5067393;28;20250;-68
2022/11/06 14:36:24;;;;;;;6.78;2.13;;;;;;;;;;5064814;28;20195;-69
2022/11/06 14:38:51;;;;;;;8.77;1.80;;;;;;;;;;5065331;28;20644;-69
2022/11/06 14:41:34;;;;;;;4.35;2.15;;;;;;;;;;5066972;28;20218;-69
2022/11/06 14:44:19;;;;;;;5.88;1.88;;;;;;;;;;5066255;28;20239;-69
2022/11/06 14:46:50;;;;;;;6.70;1.77;;;;;;;;;;5065232;28;20188;-68
2022/11/06 14:49:27;;;;;;;4.15;1.60;;;;;;;;;;5064431;28;20274;-69
2022/11/06 14:52:06;;;;;;;8.10;1.92;;;;;;;;;;5080421;28;20172;-69
2022/11/06 14:54:34;;;;;;;6.97;2.28;;;;;;;;;;5064088;28;20391;-68
2022/11/06 14:57:00;;;;;;;8.00;2.45;;;;;;;;;;5064105;28;20188;-69
2022/11/06 14:59:38;;;;;;;6.03;2.30;;;;;;;;;;5067203;28;20218;-68
2022/11/06 15:02:15;;;;;;;3.60;1.90;;;;;;;;;;5076538;28;20192;-68
2022/11/06 15:04:47;;;;;;;5.03;1.95;;;;;;;;;;5069588;28;20196;-69
2022/11/06 15:07:45;;;;;;;7.38;2.22;;;;;;;;;;5067614;28;20503;-69
2022/11/06 15:10:41;;;;;;;5.10;2.05;;;;;;;;;;5020795;28;20185;-69
2022/11/06 15:13:25;;;;;;;4.30;1.85;;;;;;;;;;5065125;28;20713;-69
2022/11/06 15:16:03;;;;;;;6.78;1.77;;;;;;;;;;5069519;28;20181;-68
2022/11/06 15:18:31;;;;;;;8.35;2.20;;;;;;;;;;5068489;28;20177;-68